Time;durP1;ratioP1;P1;durP2;ratioP2;P2;SDS_P1;SDS_P2;PMS_P1;PMS_P2;Temp;Humidity;BMP_temperature;BMP_pressure;BME280_temperature;BME280_humidity;BME280_pressure;Samples;Min_cycle;Max_cycle;Signal;HPM_P1;HPM_P2
2022/12/09 00:00:27;;;;;;;1.52;0.45;;;16.00;71.20;;;;;;4975385;28;20121;-73
2022/12/09 00:02:53;;;;;;;0.50;0.50;;;16.00;71.20;;;;;;4975268;28;20038;-73
2022/12/09 00:05:18;;;;;;;0.68;0.52;;;16.00;71.20;;;;;;4992805;28;20117;-73
2022/12/09 00:07:44;;;;;;;0.40;0.40;;;16.00;71.20;;;;;;4992206;28;20129;-73
2022/12/09 00:10:10;;;;;;;1.05;0.50;;;16.00;71.30;;;;;;4992319;28;20113;-73
2022/12/09 00:12:35;;;;;;;3.85;0.50;;;16.00;71.30;;;;;;4975130;28;20073;-73
2022/12/09 00:15:01;;;;;;;0.65;0.60;;;16.00;71.30;;;;;;4992565;28;20023;-73
2022/12/09 00:17:27;;;;;;;0.50;0.50;;;16.00;71.40;;;;;;4975271;28;20027;-73
2022/12/09 00:19:52;;;;;;;1.45;0.50;;;16.00;71.40;;;;;;4992557;28;20026;-73
2022/12/09 00:22:18;;;;;;;1.42;0.40;;;16.00;71.50;;;;;;4992572;28;20096;-73
2022/12/09 00:24:43;;;;;;;0.60;0.45;;;16.00;71.60;;;;;;4974833;28;20056;-73
2022/12/09 00:27:09;;;;;;;1.05;0.55;;;16.00;71.60;;;;;;4992677;28;20409;-73
2022/12/09 00:29:35;;;;;;;0.50;0.50;;;16.00;71.70;;;;;;4992523;28;20405;-73
2022/12/09 00:32:01;;;;;;;0.60;0.50;;;16.00;71.70;;;;;;4992219;28;20031;-73
2022/12/09 00:34:26;;;;;;;0.70;0.70;;;16.00;71.70;;;;;;4977555;28;20023;-74
2022/12/09 00:36:52;;;;;;;0.45;0.45;;;16.00;71.70;;;;;;4996006;28;20031;-73
2022/12/09 00:39:17;;;;;;;0.70;0.60;;;16.00;71.80;;;;;;4995817;28;20446;-74
2022/12/09 00:41:43;;;;;;;0.57;0.43;;;16.00;71.80;;;;;;4996019;28;20520;-73
2022/12/09 00:44:09;;;;;;;0.75;0.60;;;16.00;71.70;;;;;;4995583;28;20481;-73
2022/12/09 00:46:35;;;;;;;0.70;0.70;;;16.00;71.90;;;;;;4978538;28;20473;-74
2022/12/09 00:49:01;;;;;;;0.90;0.60;;;15.90;71.80;;;;;;4995772;28;20073;-74
2022/12/09 00:51:27;;;;;;;0.65;0.60;;;16.00;71.90;;;;;;4978436;28;20073;-74
2022/12/09 00:53:55;;;;;;;0.60;0.60;;;16.00;71.90;;;;;;4995480;28;20026;-74
2022/12/09 00:56:25;;;;;;;0.60;0.60;;;16.00;71.90;;;;;;4995610;28;20485;-73
2022/12/09 00:58:51;;;;;;;0.40;0.40;;;15.90;72.00;;;;;;4978102;28;20015;-73
2022/12/09 01:01:16;;;;;;;0.60;0.60;;;15.90;71.90;;;;;;4978419;28;20123;-73
2022/12/09 01:03:42;;;;;;;0.50;0.47;;;15.90;71.90;;;;;;4978222;28;20089;-73
2022/12/09 01:06:09;;;;;;;0.88;0.68;;;15.90;71.90;;;;;;4995113;28;20477;-73
2022/12/09 01:08:35;;;;;;;0.70;0.70;;;16.00;72.00;;;;;;4977681;28;20050;-73
2022/12/09 01:11:06;;;;;;;0.95;0.65;;;16.00;72.20;;;;;;4977968;28;20126;-73
2022/12/09 01:13:32;;;;;;;0.65;0.60;;;15.90;72.00;;;;;;4978884;28;20029;-73
2022/12/09 01:15:57;;;;;;;0.55;0.55;;;16.00;72.10;;;;;;4995224;28;20026;-73
2022/12/09 01:18:23;;;;;;;1.58;0.52;;;15.90;72.10;;;;;;4977890;28;20022;-74
2022/12/09 01:20:58;;;;;;;2.15;0.60;;;16.00;72.10;;;;;;4995218;28;20030;-73
2022/12/09 01:23:23;;;;;;;0.63;0.63;;;15.90;72.20;;;;;;4977606;28;20023;-73
2022/12/09 01:25:49;;;;;;;1.65;0.70;;;15.90;72.20;;;;;;4977809;28;20033;-73
2022/12/09 01:28:15;;;;;;;0.70;0.50;;;15.90;72.20;;;;;;4977605;28;20504;-73
2022/12/09 01:30:40;;;;;;;0.43;0.43;;;16.00;72.30;;;;;;4995115;28;20505;-73
2022/12/09 01:33:06;;;;;;;0.52;0.47;;;15.90;72.20;;;;;;4977476;28;20022;-73
2022/12/09 01:35:32;;;;;;;0.40;0.40;;;16.00;72.30;;;;;;4994893;28;20027;-74
2022/12/09 01:37:57;;;;;;;1.30;1.13;;;15.90;72.40;;;;;;4994544;28;20101;-74
2022/12/09 01:40:23;;;;;;;0.60;0.60;;;15.90;72.30;;;;;;4995022;28;20421;-73
2022/12/09 01:42:49;;;;;;;0.85;0.57;;;16.00;72.30;;;;;;4994698;28;20497;-73
2022/12/09 01:45:22;;;;;;;0.95;0.50;;;15.90;72.40;;;;;;4976884;28;20037;-73
2022/12/09 01:47:48;;;;;;;0.77;0.77;;;16.00;72.40;;;;;;4994619;28;20025;-73
2022/12/09 01:50:14;;;;;;;0.65;0.65;;;15.90;72.40;;;;;;4977245;28;20476;-73
2022/12/09 01:52:40;;;;;;;0.50;0.50;;;15.90;72.40;;;;;;4977179;28;20396;-73
2022/12/09 01:55:06;;;;;;;0.50;0.50;;;15.90;72.40;;;;;;4994508;28;20030;-73
2022/12/09 01:57:32;;;;;;;0.80;0.65;;;15.90;72.40;;;;;;4977077;28;20089;-73
2022/12/09 01:59:57;;;;;;;0.50;0.50;;;15.90;72.40;;;;;;4994421;28;20565;-73
2022/12/09 02:02:23;;;;;;;1.48;0.60;;;15.90;72.50;;;;;;4977181;28;20500;-74
2022/12/09 02:04:49;;;;;;;1.42;0.60;;;15.90;72.50;;;;;;4976729;28;20069;-74
2022/12/09 02:07:14;;;;;;;0.50;0.40;;;15.90;72.60;;;;;;4976705;28;20046;-74
2022/12/09 02:09:40;;;;;;;0.63;0.60;;;15.90;72.60;;;;;;4977033;28;20054;-74
2022/12/09 02:12:32;;;;;;;0.50;0.50;;;15.90;72.60;;;;;;4976729;28;20418;-74
2022/12/09 02:15:07;;;;;;;0.82;0.75;;;15.90;72.70;;;;;;4972342;28;20069;-74
2022/12/09 02:17:41;;;;;;;0.60;0.60;;;15.90;72.60;;;;;;4976551;28;20029;-74
2022/12/09 02:20:24;;;;;;;1.73;0.60;;;15.90;72.70;;;;;;4976448;28;20018;-74
2022/12/09 02:22:55;;;;;;;;;;;15.90;72.80;;;;;;4977179;28;20022;-74
2022/12/09 02:25:30;;;;;;;0.60;0.55;;;15.90;72.80;;;;;;5009244;28;19906;-74
2022/12/09 02:28:24;;;;;;;0.40;0.40;;;15.90;72.70;;;;;;4977619;28;20041;-74
2022/12/09 02:31:00;;;;;;;1.65;0.60;;;15.90;72.80;;;;;;4993654;28;20492;-74
2022/12/09 02:33:41;;;;;;;0.50;0.50;;;15.90;72.80;;;;;;4976456;28;20022;-74
2022/12/09 02:36:14;;;;;;;1.48;0.50;;;15.90;72.80;;;;;;4976454;28;20112;-74
2022/12/09 02:38:40;;;;;;;1.05;0.55;;;15.90;72.80;;;;;;4976459;28;20516;-74
2022/12/09 02:41:07;;;;;;;0.73;0.73;;;15.80;72.70;;;;;;4976362;28;20030;-74
2022/12/09 02:43:39;;;;;;;1.75;0.70;;;15.80;72.70;;;;;;4976540;28;20030;-74
2022/12/09 02:46:05;;;;;;;0.85;0.60;;;15.80;72.70;;;;;;4976058;28;20025;-74
2022/12/09 02:48:36;;;;;;;0.60;0.60;;;15.80;72.80;;;;;;4976100;28;20105;-74
2022/12/09 02:51:06;;;;;;;0.43;0.43;;;15.90;72.80;;;;;;4976193;28;20173;-74
2022/12/09 02:53:32;;;;;;;0.70;0.70;;;15.80;72.70;;;;;;4976143;28;20022;-74
2022/12/09 02:55:57;;;;;;;1.52;1.42;;;15.80;72.70;;;;;;4976140;28;20029;-74
2022/12/09 02:58:23;;;;;;;0.55;0.55;;;15.80;72.80;;;;;;4975253;28;20030;-74
2022/12/09 03:00:49;;;;;;;0.57;0.57;;;15.80;72.80;;;;;;4976085;28;20108;-74
2022/12/09 03:03:15;;;;;;;0.40;0.40;;;15.80;72.80;;;;;;4975753;28;20086;-74
2022/12/09 03:06:02;;;;;;;0.60;0.60;;;15.80;72.70;;;;;;4976011;28;20563;-73
2022/12/09 03:08:47;;;;;;;0.50;0.50;;;15.80;72.70;;;;;;4975737;28;20504;-74
2022/12/09 03:11:19;;;;;;;0.73;0.50;;;15.80;72.80;;;;;;4976860;28;20026;-74
2022/12/09 03:13:57;;;;;;;0.50;0.50;;;15.80;72.80;;;;;;4975999;28;20133;-74
2022/12/09 03:16:23;;;;;;;0.75;0.70;;;15.80;72.90;;;;;;4976114;28;20029;-74
2022/12/09 03:18:53;;;;;;;0.43;0.43;;;15.80;72.90;;;;;;4992987;28;20023;-74
2022/12/09 03:21:20;;;;;;;0.50;0.50;;;15.80;73.00;;;;;;4975545;28;20053;-74
2022/12/09 03:23:46;;;;;;;0.52;0.52;;;15.80;72.90;;;;;;4976115;28;20029;-74
2022/12/09 03:26:12;;;;;;;3.42;0.63;;;15.80;72.90;;;;;;4975651;28;20026;-74
2022/12/09 03:28:40;;;;;;;1.38;0.50;;;15.80;72.90;;;;;;4975877;28;20543;-74
2022/12/09 03:31:08;;;;;;;1.15;0.70;;;15.80;72.90;;;;;;4975760;28;20015;-74
2022/12/09 03:33:33;;;;;;;1.13;0.70;;;15.80;73.00;;;;;;4975475;28;20025;-74
2022/12/09 03:36:01;;;;;;;1.48;0.43;;;15.80;73.00;;;;;;4992991;28;20023;-74
2022/12/09 03:38:29;;;;;;;0.68;0.63;;;15.80;73.00;;;;;;4975754;28;20021;-74
2022/12/09 03:41:16;;;;;;;0.77;0.57;;;15.80;74.00;;;;;;4975751;28;20050;-74
2022/12/09 03:43:43;;;;;;;3.85;0.65;;;15.80;73.00;;;;;;4975477;28;20011;-74
2022/12/09 03:46:09;;;;;;;0.43;0.43;;;15.80;73.00;;;;;;4975230;28;20092;-74
2022/12/09 03:48:34;;;;;;;0.40;0.40;;;15.80;73.00;;;;;;4975658;28;20489;-74
2022/12/09 03:51:08;;;;;;;0.73;0.43;;;15.80;73.00;;;;;;4975481;28;20049;-74
2022/12/09 03:54:04;;;;;;;0.60;0.50;;;15.80;73.00;;;;;;4975456;28;20027;-74
2022/12/09 03:56:41;;;;;;;0.60;0.60;;;15.80;73.00;;;;;;4975360;28;20039;-74
2022/12/09 03:59:12;;;;;;;2.47;0.50;;;15.80;73.00;;;;;;4975530;28;20030;-74
2022/12/09 04:01:39;;;;;;;0.50;0.50;;;15.80;73.00;;;;;;4975960;28;20036;-74
2022/12/09 04:04:04;;;;;;;0.40;0.40;;;15.80;73.00;;;;;;4975356;28;20113;-74
2022/12/09 04:06:30;;;;;;;0.43;0.38;;;15.80;73.00;;;;;;4975141;28;20109;-74
2022/12/09 04:08:56;;;;;;;0.70;0.57;;;15.80;73.00;;;;;;4993185;28;20082;-74
2022/12/09 04:11:21;;;;;;;0.75;0.57;;;15.80;73.00;;;;;;4994472;28;20030;-74
2022/12/09 04:13:47;;;;;;;0.80;0.60;;;15.80;73.20;;;;;;4996113;28;20042;-74
2022/12/09 04:16:13;;;;;;;0.50;0.50;;;15.80;73.10;;;;;;4996666;28;20054;-74
2022/12/09 04:18:38;;;;;;;0.50;0.50;;;15.80;73.10;;;;;;4965244;28;20023;-74
2022/12/09 04:21:08;;;;;;;1.17;0.50;;;15.80;73.20;;;;;;4996881;28;20077;-74
2022/12/09 04:23:33;;;;;;;1.20;0.50;;;15.80;73.30;;;;;;4979479;28;20037;-74
2022/12/09 04:25:59;;;;;;;1.13;0.60;;;15.80;73.30;;;;;;4979361;28;20389;-74
2022/12/09 04:28:25;;;;;;;1.08;0.40;;;15.80;73.30;;;;;;4979612;28;20032;-74
2022/12/09 04:30:50;;;;;;;0.50;0.50;;;15.80;73.30;;;;;;4979094;28;20114;-74
2022/12/09 04:33:16;;;;;;;0.50;0.50;;;15.80;73.30;;;;;;4996780;28;20038;-74
2022/12/09 04:35:41;;;;;;;0.63;0.60;;;15.80;73.30;;;;;;4996625;28;20030;-74
2022/12/09 04:38:07;;;;;;;2.35;0.52;;;15.80;73.30;;;;;;4996453;28;20499;-74
2022/12/09 04:40:33;;;;;;;0.50;0.50;;;15.80;73.30;;;;;;4979206;28;20552;-74
2022/12/09 04:42:58;;;;;;;0.88;0.60;;;15.80;73.40;;;;;;4978123;28;20049;-74
2022/12/09 04:45:24;;;;;;;0.40;0.40;;;15.80;73.50;;;;;;4985693;28;20165;-74
2022/12/09 04:47:50;;;;;;;6.75;0.57;;;15.80;73.50;;;;;;4995817;28;20037;-74
2022/12/09 04:50:16;;;;;;;2.88;0.40;;;15.80;73.30;;;;;;4995639;28;20030;-74
2022/12/09 04:52:41;;;;;;;0.63;0.47;;;15.80;73.30;;;;;;4994516;28;20029;-74
2022/12/09 04:55:08;;;;;;;1.08;0.50;;;15.80;73.30;;;;;;4994626;28;20481;-74
2022/12/09 04:57:34;;;;;;;1.60;0.50;;;15.80;73.30;;;;;;4994466;28;20022;-74
2022/12/09 05:00:00;;;;;;;0.60;0.50;;;15.80;73.40;;;;;;4995542;28;20392;-74
2022/12/09 05:02:25;;;;;;;0.75;0.50;;;15.80;73.30;;;;;;4995506;28;20029;-74
2022/12/09 05:04:51;;;;;;;0.30;0.30;;;15.80;73.40;;;;;;4995687;28;20089;-74
2022/12/09 05:07:17;;;;;;;2.15;0.50;;;15.80;73.50;;;;;;4981597;28;20054;-74
2022/12/09 05:09:42;;;;;;;0.70;0.52;;;15.80;73.40;;;;;;4995509;28;20042;-74
2022/12/09 05:12:08;;;;;;;0.50;0.50;;;15.80;73.40;;;;;;4995304;28;20464;-74
2022/12/09 05:14:34;;;;;;;1.00;0.40;;;15.80;73.40;;;;;;4977727;28;20477;-74
2022/12/09 05:16:59;;;;;;;0.30;0.30;;;15.80;73.50;;;;;;4995378;28;20374;-74
2022/12/09 05:19:25;;;;;;;0.75;0.55;;;15.80;73.40;;;;;;4977380;28;20125;-74
2022/12/09 05:21:50;;;;;;;0.55;0.40;;;15.80;73.40;;;;;;4977385;28;20077;-74
2022/12/09 05:24:16;;;;;;;0.55;0.55;;;15.80;73.40;;;;;;4995272;28;20042;-74
2022/12/09 05:26:42;;;;;;;0.50;0.50;;;15.80;73.40;;;;;;4995171;28;20027;-74
2022/12/09 05:29:07;;;;;;;0.52;0.43;;;15.80;73.50;;;;;;4995006;28;20034;-74
2022/12/09 05:31:33;;;;;;;0.93;0.50;;;15.80;73.50;;;;;;4995012;28;20034;-74
2022/12/09 05:33:59;;;;;;;1.15;0.63;;;15.70;73.40;;;;;;4994971;28;20081;-74
2022/12/09 05:36:26;;;;;;;0.60;0.60;;;15.80;73.40;;;;;;4977640;28;20058;-74
2022/12/09 05:38:52;;;;;;;1.77;0.40;;;15.80;73.40;;;;;;4977729;28;20539;-74
2022/12/09 05:41:18;;;;;;;0.47;0.40;;;15.70;73.40;;;;;;4977340;28;20022;-74
2022/12/09 05:43:43;;;;;;;1.05;0.40;;;15.80;73.40;;;;;;4977369;28;20096;-74
2022/12/09 05:46:09;;;;;;;0.50;0.50;;;15.80;73.30;;;;;;4977465;28;20042;-74
2022/12/09 05:48:35;;;;;;;0.82;0.75;;;15.80;73.50;;;;;;4994795;28;20511;-74
2022/12/09 05:51:04;;;;;;;0.55;0.40;;;15.80;73.40;;;;;;4994631;28;20481;-74
2022/12/09 05:53:29;;;;;;;0.60;0.40;;;15.80;73.50;;;;;;4977256;28;20030;-74
2022/12/09 05:55:55;;;;;;;1.42;0.63;;;15.80;73.50;;;;;;4977310;28;20030;-74
2022/12/09 05:58:21;;;;;;;0.68;0.55;;;15.80;73.50;;;;;;4976895;28;20572;-74
2022/12/09 06:00:47;;;;;;;0.60;0.40;;;15.70;73.40;;;;;;4994486;28;20046;-74
2022/12/09 06:03:12;;;;;;;0.35;0.35;;;15.80;73.50;;;;;;4977125;28;20444;-74
2022/12/09 06:05:38;;;;;;;0.52;0.50;;;15.80;73.50;;;;;;4976746;28;20097;-74
2022/12/09 06:08:04;;;;;;;1.10;0.47;;;15.80;73.60;;;;;;4976795;28;20397;-74
2022/12/09 06:10:30;;;;;;;1.52;0.30;;;15.80;73.50;;;;;;4977181;28;20485;-74
2022/12/09 06:12:56;;;;;;;0.50;0.50;;;15.80;73.60;;;;;;4976531;28;20030;-74
2022/12/09 06:15:22;;;;;;;0.60;0.60;;;15.80;73.50;;;;;;4976839;28;20089;-74
2022/12/09 06:17:47;;;;;;;1.15;0.50;;;15.80;73.50;;;;;;4994104;28;20480;-74
2022/12/09 06:20:13;;;;;;;1.45;0.60;;;15.80;73.50;;;;;;4976761;28;20122;-74
2022/12/09 06:22:39;;;;;;;0.50;0.50;;;15.80;73.50;;;;;;4994026;28;20030;-74
2022/12/09 06:25:05;;;;;;;1.30;0.68;;;15.70;73.40;;;;;;4994161;28;20038;-74
2022/12/09 06:27:30;;;;;;;0.60;0.50;;;15.70;73.50;;;;;;4993661;28;20031;-74
2022/12/09 06:29:56;;;;;;;0.70;0.60;;;15.80;73.50;;;;;;4976771;28;20123;-74
2022/12/09 06:32:21;;;;;;;0.40;0.40;;;15.80;73.50;;;;;;4976151;28;20061;-74
2022/12/09 06:34:47;;;;;;;0.80;0.45;;;15.80;74.60;;;;;;4993835;28;20030;-74
2022/12/09 06:37:16;;;;;;;1.02;0.95;;;15.80;73.60;;;;;;4976687;28;20481;-74
2022/12/09 06:39:42;;;;;;;0.55;0.55;;;15.70;73.60;;;;;;4976456;28;20018;-74
2022/12/09 06:42:07;;;;;;;0.55;0.50;;;15.70;73.70;;;;;;4993461;28;20048;-74
2022/12/09 06:44:33;;;;;;;0.50;0.50;;;15.70;73.70;;;;;;4993635;28;20457;-74
2022/12/09 06:46:59;;;;;;;1.98;0.60;;;15.70;73.60;;;;;;4993685;28;20495;-74
2022/12/09 06:49:24;;;;;;;0.63;0.60;;;15.70;73.50;;;;;;4976275;28;20448;-74
2022/12/09 06:51:50;;;;;;;0.38;0.38;;;15.70;73.50;;;;;;4993672;28;20473;-74
2022/12/09 06:54:16;;;;;;;0.95;0.57;;;15.70;73.50;;;;;;4993474;28;20110;-74
2022/12/09 06:56:41;;;;;;;0.70;0.50;;;15.70;73.50;;;;;;4976176;28;20045;-74
2022/12/09 06:59:08;;;;;;;0.43;0.43;;;15.70;73.50;;;;;;4976347;28;20377;-74
2022/12/09 07:01:33;;;;;;;0.57;0.52;;;15.70;73.50;;;;;;4976101;28;20030;-74
2022/12/09 07:03:59;;;;;;;1.23;0.40;;;15.70;73.50;;;;;;4976075;28;20403;-74
2022/12/09 07:06:40;;;;;;;0.30;0.30;;;15.70;73.50;;;;;;4975883;28;20476;-74
2022/12/09 07:09:06;;;;;;;0.40;0.40;;;15.70;73.50;;;;;;4953608;28;20075;-74
2022/12/09 07:11:32;;;;;;;2.15;0.50;;;15.70;73.50;;;;;;4953005;29;20121;-74
2022/12/09 07:13:58;;;;;;;0.40;0.40;;;15.70;73.50;;;;;;4953592;29;20103;-74
2022/12/09 07:16:24;;;;;;;3.10;0.88;;;15.70;73.50;;;;;;4954673;29;20024;-74
2022/12/09 07:18:49;;;;;;;0.40;0.40;;;15.70;73.50;;;;;;4953340;29;20486;-74
2022/12/09 07:21:16;;;;;;;0.90;0.50;;;15.70;73.50;;;;;;4954462;29;20043;-74
2022/12/09 07:23:42;;;;;;;0.73;0.73;;;15.70;73.40;;;;;;4954053;28;20023;-74
2022/12/09 07:26:08;;;;;;;0.70;0.70;;;15.70;72.80;;;;;;4953358;29;20103;-74
2022/12/09 07:28:34;;;;;;;1.27;0.80;;;15.70;72.10;;;;;;4937296;29;20453;-74
2022/12/09 07:30:59;;;;;;;2.15;0.80;;;15.70;71.90;;;;;;4952908;28;20054;-74
2022/12/09 07:33:25;;;;;;;0.50;0.50;;;15.70;72.00;;;;;;4951740;29;20019;-74
2022/12/09 07:35:54;;;;;;;1.00;0.85;;;15.70;72.10;;;;;;4952817;29;20030;-74
2022/12/09 07:38:21;;;;;;;0.60;0.60;;;15.70;72.00;;;;;;4952704;29;20017;-74
2022/12/09 07:40:46;;;;;;;0.77;0.77;;;15.70;71.80;;;;;;4952722;28;20019;-74
2022/12/09 07:43:12;;;;;;;2.08;0.98;;;15.70;71.70;;;;;;4953212;28;20110;-74
2022/12/09 07:45:37;;;;;;;1.15;0.70;;;15.70;71.70;;;;;;4958135;29;20080;-74
2022/12/09 07:48:03;;;;;;;1.45;0.70;;;15.70;71.60;;;;;;4958299;29;20073;-74
2022/12/09 07:50:29;;;;;;;1.15;0.90;;;15.70;71.60;;;;;;4958036;29;20173;-74
2022/12/09 07:52:54;;;;;;;1.48;1.02;;;15.70;71.50;;;;;;4957281;29;20038;-74
2022/12/09 07:55:20;;;;;;;3.17;1.13;;;15.70;71.60;;;;;;4957701;29;20035;-74
2022/12/09 07:57:46;;;;;;;2.50;1.35;;;15.70;71.60;;;;;;4956515;29;20384;-74
2022/12/09 08:00:12;;;;;;;5.32;1.70;;;15.70;72.00;;;;;;4956821;29;20031;-74
2022/12/09 08:02:38;;;;;;;2.70;1.40;;;15.70;72.30;;;;;;4955761;29;20086;-74
2022/12/09 08:05:04;;;;;;;2.03;1.42;;;15.70;72.60;;;;;;4957266;29;20023;-74
2022/12/09 08:07:29;;;;;;;4.32;1.80;;;15.70;72.80;;;;;;4968807;28;20077;-74
2022/12/09 08:09:55;;;;;;;2.60;1.38;;;15.70;73.00;;;;;;4978057;28;20532;-74
2022/12/09 08:12:21;;;;;;;4.75;1.90;;;15.70;73.10;;;;;;4994912;28;20492;-74
2022/12/09 08:14:48;;;;;;;3.70;1.63;;;15.70;73.20;;;;;;4985332;28;20432;-74
2022/12/09 08:17:14;;;;;;;3.70;2.03;;;15.70;74.20;;;;;;4989793;28;20492;-74
2022/12/09 08:19:40;;;;;;;3.00;1.98;;;15.70;73.20;;;;;;4959585;28;20507;-74
2022/12/09 08:22:05;;;;;;;4.10;1.60;;;15.70;73.10;;;;;;4970809;28;20030;-74
2022/12/09 08:24:31;;;;;;;2.60;1.70;;;15.70;73.10;;;;;;4996188;28;20038;-74
2022/12/09 08:26:57;;;;;;;3.08;1.85;;;15.70;73.00;;;;;;4996247;28;20037;-74
2022/12/09 08:29:22;;;;;;;2.85;1.80;;;15.70;72.90;;;;;;4994908;28;20034;-74
2022/12/09 08:31:48;;;;;;;1.85;1.30;;;15.70;72.90;;;;;;4976752;28;20563;-74
2022/12/09 08:34:14;;;;;;;2.25;1.55;;;15.70;72.80;;;;;;4976816;28;20062;-74
2022/12/09 08:36:39;;;;;;;3.17;1.70;;;15.70;72.70;;;;;;4943161;28;20123;-74
2022/12/09 08:39:05;;;;;;;1.65;1.33;;;15.70;72.60;;;;;;4959408;28;20508;-74
2022/12/09 08:41:36;;;;;;;2.42;1.35;;;15.70;72.50;;;;;;4959189;28;20018;-74
2022/12/09 08:44:06;;;;;;;2.95;1.67;;;15.70;72.50;;;;;;4959965;28;20085;-74
2022/12/09 08:46:32;;;;;;;1.83;1.50;;;15.60;72.40;;;;;;4945689;28;20030;-74
2022/12/09 08:49:00;;;;;;;3.35;1.40;;;15.60;73.40;;;;;;4978362;28;20040;-74
2022/12/09 08:51:26;;;;;;;2.63;1.60;;;15.60;72.30;;;;;;4978564;28;20026;-74
2022/12/09 08:53:52;;;;;;;3.17;1.38;;;15.60;72.30;;;;;;4995844;28;20511;-74
2022/12/09 08:56:17;;;;;;;2.42;1.67;;;15.60;72.20;;;;;;4995752;28;20031;-74
2022/12/09 08:58:43;;;;;;;5.20;1.38;;;15.60;72.20;;;;;;4995757;28;20101;-74
2022/12/09 09:01:20;;;;;;;2.33;1.52;;;15.60;72.10;;;;;;4995624;28;20032;-74
2022/12/09 09:03:46;;;;;;;2.33;1.40;;;15.60;72.10;;;;;;4995457;28;20023;-74
2022/12/09 09:06:13;;;;;;;2.20;1.40;;;15.60;72.10;;;;;;4977860;28;20045;-74
2022/12/09 09:08:38;;;;;;;2.92;1.60;;;15.60;72.10;;;;;;4959336;28;20047;-74
2022/12/09 09:11:13;;;;;;;1.65;1.45;;;15.60;72.00;;;;;;4939686;29;20110;-74
2022/12/09 09:13:39;;;;;;;1.85;1.30;;;15.60;72.00;;;;;;4956509;28;20019;-74
2022/12/09 09:16:11;;;;;;;4.13;1.48;;;15.60;72.00;;;;;;4955513;29;20110;-74
2022/12/09 09:18:37;;;;;;;1.50;1.17;;;15.60;71.90;;;;;;4939924;29;20196;-74
2022/12/09 09:21:05;;;;;;;2.90;1.83;;;15.60;72.00;;;;;;4939291;29;20034;-74
2022/12/09 09:23:30;;;;;;;1.63;1.35;;;15.60;71.90;;;;;;4939350;29;20437;-74
2022/12/09 09:25:56;;;;;;;2.45;1.55;;;15.60;71.90;;;;;;4956428;29;20031;-74
2022/12/09 09:28:22;;;;;;;2.30;1.42;;;15.60;72.00;;;;;;4956572;29;20421;-74
2022/12/09 09:30:49;;;;;;;2.03;1.50;;;15.60;71.90;;;;;;4956393;29;20455;-74
2022/12/09 09:33:16;;;;;;;1.45;1.35;;;15.60;71.90;;;;;;4956292;29;20374;-74
2022/12/09 09:35:42;;;;;;;1.77;1.40;;;15.60;71.90;;;;;;4956027;28;20086;-74
2022/12/09 09:38:08;;;;;;;3.75;1.55;;;15.60;71.90;;;;;;4955244;29;20035;-74
2022/12/09 09:40:33;;;;;;;3.53;1.67;;;15.60;71.90;;;;;;4956315;29;20074;-74
2022/12/09 09:42:59;;;;;;;2.70;1.35;;;15.60;71.80;;;;;;4956029;29;20494;-74
2022/12/09 09:45:25;;;;;;;2.13;1.55;;;15.60;71.80;;;;;;4923201;29;20126;-74
2022/12/09 09:48:01;;;;;;;2.40;1.48;;;15.60;71.80;;;;;;4954856;29;20038;-74
2022/12/09 09:50:32;;;;;;;1.60;1.50;;;15.60;71.70;;;;;;4939028;29;20053;-74
2022/12/09 09:52:58;;;;;;;1.65;1.50;;;15.60;71.80;;;;;;4954706;29;20333;-74
2022/12/09 09:55:33;;;;;;;1.60;1.50;;;15.60;71.70;;;;;;4938658;29;20066;-74
2022/12/09 09:58:05;;;;;;;3.67;1.42;;;15.60;71.70;;;;;;4939220;29;20024;-74
2022/12/09 10:00:34;;;;;;;1.55;1.27;;;15.60;71.70;;;;;;4954630;28;20019;-73
2022/12/09 10:03:16;;;;;;;1.50;1.40;;;15.60;71.60;;;;;;4938959;29;20023;-74
2022/12/09 10:05:41;;;;;;;1.40;1.30;;;15.60;71.70;;;;;;4954046;28;20031;-74
2022/12/09 10:08:31;;;;;;;1.58;1.30;;;15.60;71.70;;;;;;4977514;28;20103;-74
2022/12/09 10:11:19;;;;;;;1.70;1.50;;;15.60;71.60;;;;;;4976923;28;20034;-74
2022/12/09 10:13:51;;;;;;;1.48;1.38;;;15.60;71.60;;;;;;4976895;28;20466;-74
2022/12/09 10:16:29;;;;;;;1.98;1.40;;;15.60;71.60;;;;;;4976873;28;20034;-74
2022/12/09 10:19:18;;;;;;;1.38;1.25;;;15.60;71.50;;;;;;4976389;28;20026;-74
2022/12/09 10:21:44;;;;;;;1.42;1.30;;;15.60;71.50;;;;;;4993915;28;20025;-74
2022/12/09 10:24:23;;;;;;;1.30;1.20;;;15.50;71.40;;;;;;4976856;28;20026;-74
2022/12/09 10:27:21;;;;;;;1.40;1.30;;;15.60;71.50;;;;;;4976616;28;20050;-74
2022/12/09 10:29:53;;;;;;;1.60;1.40;;;15.50;71.40;;;;;;4933705;29;20050;-74
2022/12/09 10:32:20;;;;;;;1.65;1.40;;;15.60;71.50;;;;;;4917888;29;20050;-74
2022/12/09 10:34:46;;;;;;;1.52;1.38;;;15.50;71.40;;;;;;4902510;29;20111;-74
2022/12/09 10:37:34;;;;;;;1.40;1.30;;;15.60;71.40;;;;;;4902394;29;20106;-74
2022/12/09 10:40:06;;;;;;;3.28;1.50;;;15.50;71.40;;;;;;4917968;29;20039;-74
2022/12/09 10:45:20;;;;;;;1.60;1.20;;;15.50;71.20;;;;;;4907620;29;20488;-74
2022/12/09 10:47:50;;;;;;;2.92;1.27;;;15.50;71.20;;;;;;4933684;29;20048;-74
2022/12/09 10:50:29;;;;;;;1.50;1.40;;;15.50;71.20;;;;;;4902536;29;20141;-74
2022/12/09 10:52:54;;;;;;;1.15;1.05;;;15.50;71.20;;;;;;4902648;29;20322;-74
2022/12/09 10:55:33;;;;;;;1.40;1.30;;;15.50;71.20;;;;;;4917862;29;20518;-74
2022/12/09 10:58:17;;;;;;;3.05;1.23;;;15.50;71.10;;;;;;4903517;29;20039;-74
2022/12/09 11:00:44;;;;;;;1.73;1.20;;;15.50;71.10;;;;;;4902257;29;20072;-74
2022/12/09 11:03:34;;;;;;;2.90;1.48;;;15.50;71.20;;;;;;4901990;29;20387;-74
2022/12/09 11:06:21;;;;;;;2.33;1.30;;;15.50;71.10;;;;;;4949042;28;20039;-73
2022/12/09 11:08:54;;;;;;;1.33;1.23;;;15.50;71.10;;;;;;4993172;28;20060;-73
2022/12/09 11:11:38;;;;;;;2.35;1.33;;;15.50;71.10;;;;;;4975997;28;20026;-73
2022/12/09 11:14:23;;;;;;;1.25;1.10;;;15.50;71.00;;;;;;4978062;28;20022;-73
2022/12/09 11:17:15;;;;;;;1.00;0.93;;;15.50;71.00;;;;;;4976886;28;20034;-73
2022/12/09 11:19:40;;;;;;;1.23;1.13;;;15.50;71.00;;;;;;4977675;28;20400;-73
2022/12/09 11:22:34;;;;;;;1.23;1.13;;;15.50;71.00;;;;;;4979527;28;20029;-73
2022/12/09 11:25:20;;;;;;;1.33;1.23;;;15.50;71.00;;;;;;4957665;28;20054;-73
2022/12/09 11:28:01;;;;;;;1.30;1.20;;;15.50;71.00;;;;;;4973831;28;20023;-73
2022/12/09 11:30:31;;;;;;;1.25;1.15;;;15.50;70.90;;;;;;4973458;28;20027;-75
2022/12/09 11:33:00;;;;;;;1.73;1.20;;;15.50;71.00;;;;;;4956711;28;20448;-73
2022/12/09 11:35:43;;;;;;;1.40;1.20;;;15.50;70.90;;;;;;4973710;28;20452;-73
2022/12/09 11:38:36;;;;;;;1.77;0.98;;;15.50;70.90;;;;;;4973706;28;20035;-73
2022/12/09 11:41:08;;;;;;;1.00;1.00;;;15.50;70.90;;;;;;4973314;28;20027;-73
2022/12/09 11:43:54;;;;;;;1.40;1.00;;;15.50;71.00;;;;;;4973682;28;20106;-73
2022/12/09 11:46:21;;;;;;;1.20;1.10;;;15.50;70.90;;;;;;4955909;28;20043;-73
2022/12/09 11:48:57;;;;;;;0.93;0.93;;;15.50;70.80;;;;;;4956221;28;20066;-73
2022/12/09 11:51:36;;;;;;;0.90;0.90;;;15.50;70.80;;;;;;4956168;28;20030;-73
2022/12/09 11:54:26;;;;;;;1.38;1.08;;;15.50;70.80;;;;;;4940660;28;20489;-73
2022/12/09 11:56:52;;;;;;;1.10;1.00;;;15.50;70.80;;;;;;4940570;28;20023;-73
2022/12/09 11:59:43;;;;;;;0.95;0.90;;;15.50;70.80;;;;;;4955990;28;20591;-73
2022/12/09 12:02:21;;;;;;;0.85;0.82;;;15.50;70.80;;;;;;4971186;28;20544;-74
2022/12/09 12:05:02;;;;;;;1.25;0.90;;;15.50;70.80;;;;;;4973231;28;20059;-73
2022/12/09 12:07:42;;;;;;;1.10;0.95;;;15.50;70.80;;;;;;4990075;28;20050;-73
2022/12/09 12:10:25;;;;;;;2.08;0.98;;;15.50;70.80;;;;;;4992590;28;20026;-74
2022/12/09 12:13:18;;;;;;;1.65;1.13;;;15.50;70.70;;;;;;4975219;28;20023;-73
2022/12/09 12:15:47;;;;;;;1.00;0.80;;;15.50;70.80;;;;;;4975368;28;20025;-73
2022/12/09 12:18:19;;;;;;;1.02;0.90;;;15.50;70.70;;;;;;4975263;28;20288;-73
2022/12/09 12:21:06;;;;;;;0.70;0.70;;;15.50;70.70;;;;;;4975251;28;20034;-73
2022/12/09 12:24:11;;;;;;;0.70;0.70;;;15.50;70.70;;;;;;4977116;28;20030;-73
2022/12/09 12:26:43;;;;;;;0.90;0.90;;;15.50;70.70;;;;;;4976066;28;20129;-73
2022/12/09 12:29:36;;;;;;;1.07;0.80;;;15.50;70.70;;;;;;4975504;28;20022;-73
2022/12/09 12:32:26;;;;;;;1.30;1.02;;;15.50;70.70;;;;;;4996069;28;20054;-73
2022/12/09 12:35:07;;;;;;;1.17;1.08;;;15.50;70.70;;;;;;4978717;28;20480;-73
2022/12/09 12:37:48;;;;;;;0.65;0.65;;;15.50;70.60;;;;;;4995983;28;20105;-73
2022/12/09 12:40:26;;;;;;;1.02;0.88;;;15.50;70.60;;;;;;4995998;28;20049;-73
2022/12/09 12:46:25;;;;;;;0.80;0.80;;;15.60;70.60;;;;;;4982161;28;20408;-73
2022/12/09 12:49:16;;;;;;;0.80;0.80;;;15.60;70.60;;;;;;4978496;28;20026;-73
2022/12/09 12:51:44;;;;;;;1.00;0.90;;;15.60;70.60;;;;;;4995882;28;20034;-73
2022/12/09 12:54:16;;;;;;;0.70;0.70;;;15.60;70.60;;;;;;4995698;28;20022;-73
2022/12/09 12:56:49;;;;;;;0.70;0.70;;;15.60;70.60;;;;;;4995693;28;20034;-73
2022/12/09 12:59:44;;;;;;;0.70;0.70;;;15.50;70.50;;;;;;4978637;28;20109;-73
2022/12/09 13:02:28;;;;;;;0.70;0.70;;;15.60;70.50;;;;;;4982747;28;20507;-73
2022/12/09 13:05:02;;;;;;;0.70;0.70;;;15.50;70.50;;;;;;4995527;28;20030;-73
2022/12/09 13:07:43;;;;;;;0.70;0.70;;;15.60;70.50;;;;;;4977887;28;20054;-74